sensor_id;sensor_type;location;lat;lon;timestamp;temperature;humidity
64882;HTU21D;51375;44.836;38.672;2024-02-04T00:00:08;6.89;71.61
64882;HTU21D;51375;44.836;38.672;2024-02-04T00:02:37;6.90;71.66
64882;HTU21D;51375;44.836;38.672;2024-02-04T00:05:04;6.88;71.76
64882;HTU21D;51375;44.836;38.672;2024-02-04T00:07:30;6.83;71.86
64882;HTU21D;51375;44.836;38.672;2024-02-04T00:09:57;6.84;71.96
64882;HTU21D;51375;44.836;38.672;2024-02-04T00:12:23;6.89;71.77
64882;HTU21D;51375;44.836;38.672;2024-02-04T00:14:50;6.94;71.76
64882;HTU21D;51375;44.836;38.672;2024-02-04T00:17:16;6.94;71.80
64882;HTU21D;51375;44.836;38.672;2024-02-04T00:19:42;7.00;71.78
64882;HTU21D;51375;44.836;38.672;2024-02-04T00:22:08;7.05;71.61
64882;HTU21D;51375;44.836;38.672;2024-02-04T00:24:34;7.12;71.42
64882;HTU21D;51375;44.836;38.672;2024-02-04T00:27:00;7.18;71.29
64882;HTU21D;51375;44.836;38.672;2024-02-04T00:29:26;7.23;71.25
64882;HTU21D;51375;44.836;38.672;2024-02-04T00:31:52;7.24;71.17
64882;HTU21D;51375;44.836;38.672;2024-02-04T00:34:19;7.26;71.13
64882;HTU21D;51375;44.836;38.672;2024-02-04T00:36:45;7.29;71.11
64882;HTU21D;51375;44.836;38.672;2024-02-04T00:39:11;7.31;71.05
64882;HTU21D;51375;44.836;38.672;2024-02-04T00:41:37;7.37;70.87
64882;HTU21D;51375;44.836;38.672;2024-02-04T00:44:03;7.41;70.81
64882;HTU21D;51375;44.836;38.672;2024-02-04T00:46:29;7.42;70.79
64882;HTU21D;51375;44.836;38.672;2024-02-04T00:48:56;7.41;70.79
64882;HTU21D;51375;44.836;38.672;2024-02-04T00:51:22;7.42;70.72
64882;HTU21D;51375;44.836;38.672;2024-02-04T00:53:48;7.45;70.62
64882;HTU21D;51375;44.836;38.672;2024-02-04T00:56:14;7.46;70.60
64882;HTU21D;51375;44.836;38.672;2024-02-04T00:58:40;7.41;70.67
64882;HTU21D;51375;44.836;38.672;2024-02-04T01:01:06;7.39;70.64
64882;HTU21D;51375;44.836;38.672;2024-02-04T01:03:33;7.33;70.77
64882;HTU21D;51375;44.836;38.672;2024-02-04T01:05:59;7.32;70.82
64882;HTU21D;51375;44.836;38.672;2024-02-04T01:08:26;7.30;70.84
64882;HTU21D;51375;44.836;38.672;2024-02-04T01:10:52;7.28;70.87
64882;HTU21D;51375;44.836;38.672;2024-02-04T01:13:18;7.30;70.80
64882;HTU21D;51375;44.836;38.672;2024-02-04T01:15:44;7.28;70.81
64882;HTU21D;51375;44.836;38.672;2024-02-04T01:18:11;7.27;70.77
64882;HTU21D;51375;44.836;38.672;2024-02-04T01:20:39;7.28;70.84
64882;HTU21D;51375;44.836;38.672;2024-02-04T01:23:05;7.31;70.73
64882;HTU21D;51375;44.836;38.672;2024-02-04T01:25:31;7.33;70.58
64882;HTU21D;51375;44.836;38.672;2024-02-04T01:27:57;7.37;70.49
64882;HTU21D;51375;44.836;38.672;2024-02-04T01:30:23;7.39;70.41
64882;HTU21D;51375;44.836;38.672;2024-02-04T01:32:49;7.41;70.44
64882;HTU21D;51375;44.836;38.672;2024-02-04T01:35:15;7.45;70.29
64882;HTU21D;51375;44.836;38.672;2024-02-04T01:37:41;7.43;70.31
64882;HTU21D;51375;44.836;38.672;2024-02-04T01:40:09;7.43;70.21
64882;HTU21D;51375;44.836;38.672;2024-02-04T01:42:35;7.43;70.20
64882;HTU21D;51375;44.836;38.672;2024-02-04T01:45:01;7.44;70.13
64882;HTU21D;51375;44.836;38.672;2024-02-04T01:47:27;7.43;70.14
64882;HTU21D;51375;44.836;38.672;2024-02-04T01:49:53;7.39;70.20
64882;HTU21D;51375;44.836;38.672;2024-02-04T01:52:19;7.38;70.17
64882;HTU21D;51375;44.836;38.672;2024-02-04T01:54:46;7.37;70.19
64882;HTU21D;51375;44.836;38.672;2024-02-04T01:57:13;7.38;70.12
64882;HTU21D;51375;44.836;38.672;2024-02-04T01:59:40;7.34;70.20
64882;HTU21D;51375;44.836;38.672;2024-02-04T02:02:06;7.35;70.21
64882;HTU21D;51375;44.836;38.672;2024-02-04T02:04:32;7.40;70.13
64882;HTU21D;51375;44.836;38.672;2024-02-04T02:06:59;7.41;70.08
64882;HTU21D;51375;44.836;38.672;2024-02-04T02:09:26;7.42;69.97
64882;HTU21D;51375;44.836;38.672;2024-02-04T02:12:03;7.42;69.83
64882;HTU21D;51375;44.836;38.672;2024-02-04T02:14:49;7.44;69.88
64882;HTU21D;51375;44.836;38.672;2024-02-04T02:17:21;7.47;69.66
64882;HTU21D;51375;44.836;38.672;2024-02-04T02:19:56;7.43;69.62
64882;HTU21D;51375;44.836;38.672;2024-02-04T02:22:35;7.39;69.71
64882;HTU21D;51375;44.836;38.672;2024-02-04T02:25:03;7.35;69.79
64882;HTU21D;51375;44.836;38.672;2024-02-04T02:27:30;7.35;69.80
64882;HTU21D;51375;44.836;38.672;2024-02-04T02:29:56;7.28;69.94
64882;HTU21D;51375;44.836;38.672;2024-02-04T02:32:23;7.29;70.03
64882;HTU21D;51375;44.836;38.672;2024-02-04T02:34:49;7.28;70.13
64882;HTU21D;51375;44.836;38.672;2024-02-04T02:37:36;7.32;70.07
64882;HTU21D;51375;44.836;38.672;2024-02-04T02:42:38;7.40;69.94
64882;HTU21D;51375;44.836;38.672;2024-02-04T02:45:08;7.35;70.01
64882;HTU21D;51375;44.836;38.672;2024-02-04T02:47:37;7.35;70.02
64882;HTU21D;51375;44.836;38.672;2024-02-04T02:50:05;7.30;70.17
64882;HTU21D;51375;44.836;38.672;2024-02-04T02:52:31;7.28;70.34
64882;HTU21D;51375;44.836;38.672;2024-02-04T02:54:57;7.25;70.48
64882;HTU21D;51375;44.836;38.672;2024-02-04T02:57:23;7.24;70.60
64882;HTU21D;51375;44.836;38.672;2024-02-04T02:59:49;7.26;70.58
64882;HTU21D;51375;44.836;38.672;2024-02-04T03:02:15;7.23;70.72
64882;HTU21D;51375;44.836;38.672;2024-02-04T03:04:41;7.26;70.70
64882;HTU21D;51375;44.836;38.672;2024-02-04T03:07:08;7.23;70.71
64882;HTU21D;51375;44.836;38.672;2024-02-04T03:09:34;7.26;70.74
64882;HTU21D;51375;44.836;38.672;2024-02-04T03:12:00;7.28;70.71
64882;HTU21D;51375;44.836;38.672;2024-02-04T03:14:26;7.32;70.69
64882;HTU21D;51375;44.836;38.672;2024-02-04T03:16:52;7.33;70.67
64882;HTU21D;51375;44.836;38.672;2024-02-04T03:19:19;7.34;70.76
64882;HTU21D;51375;44.836;38.672;2024-02-04T03:21:45;7.39;70.61
64882;HTU21D;51375;44.836;38.672;2024-02-04T03:24:12;7.44;70.54
64882;HTU21D;51375;44.836;38.672;2024-02-04T03:26:38;7.50;70.41
64882;HTU21D;51375;44.836;38.672;2024-02-04T03:29:04;7.52;70.31
64882;HTU21D;51375;44.836;38.672;2024-02-04T03:31:31;7.57;70.17
64882;HTU21D;51375;44.836;38.672;2024-02-04T03:33:57;7.55;70.24
64882;HTU21D;51375;44.836;38.672;2024-02-04T03:36:27;7.50;70.31
64882;HTU21D;51375;44.836;38.672;2024-02-04T03:38:53;7.48;70.47
64882;HTU21D;51375;44.836;38.672;2024-02-04T03:41:19;7.49;70.46
64882;HTU21D;51375;44.836;38.672;2024-02-04T03:43:45;7.52;70.48
64882;HTU21D;51375;44.836;38.672;2024-02-04T03:46:16;7.56;70.43
64882;HTU21D;51375;44.836;38.672;2024-02-04T03:48:43;7.58;70.40
64882;HTU21D;51375;44.836;38.672;2024-02-04T03:51:15;7.61;70.39
64882;HTU21D;51375;44.836;38.672;2024-02-04T03:53:43;7.55;70.53
64882;HTU21D;51375;44.836;38.672;2024-02-04T03:56:09;7.62;70.30
64882;HTU21D;51375;44.836;38.672;2024-02-04T03:58:35;7.62;70.31
64882;HTU21D;51375;44.836;38.672;2024-02-04T04:01:01;7.60;70.37
64882;HTU21D;51375;44.836;38.672;2024-02-04T04:03:27;7.62;70.37
64882;HTU21D;51375;44.836;38.672;2024-02-04T04:05:53;7.63;70.39
64882;HTU21D;51375;44.836;38.672;2024-02-04T04:08:20;7.61;70.44
64882;HTU21D;51375;44.836;38.672;2024-02-04T04:10:46;7.61;70.49
64882;HTU21D;51375;44.836;38.672;2024-02-04T04:13:13;7.59;70.56
64882;HTU21D;51375;44.836;38.672;2024-02-04T04:15:40;7.57;70.70
64882;HTU21D;51375;44.836;38.672;2024-02-04T04:18:07;7.54;70.90
64882;HTU21D;51375;44.836;38.672;2024-02-04T04:20:33;7.56;70.87
64882;HTU21D;51375;44.836;38.672;2024-02-04T04:22:59;7.56;70.81
64882;HTU21D;51375;44.836;38.672;2024-02-04T04:25:25;7.56;70.83
64882;HTU21D;51375;44.836;38.672;2024-02-04T04:27:51;7.53;71.02
64882;HTU21D;51375;44.836;38.672;2024-02-04T04:30:17;7.53;71.01
64882;HTU21D;51375;44.836;38.672;2024-02-04T04:32:43;7.53;71.03
64882;HTU21D;51375;44.836;38.672;2024-02-04T04:35:09;7.49;71.12
64882;HTU21D;51375;44.836;38.672;2024-02-04T04:37:35;7.53;71.19
64882;HTU21D;51375;44.836;38.672;2024-02-04T04:40:01;7.53;71.28
64882;HTU21D;51375;44.836;38.672;2024-02-04T04:42:27;7.55;71.28
64882;HTU21D;51375;44.836;38.672;2024-02-04T04:44:53;7.58;71.25
64882;HTU21D;51375;44.836;38.672;2024-02-04T04:47:19;7.56;71.24
64882;HTU21D;51375;44.836;38.672;2024-02-04T04:49:45;7.59;71.15
64882;HTU21D;51375;44.836;38.672;2024-02-04T04:52:11;7.60;71.16
64882;HTU21D;51375;44.836;38.672;2024-02-04T04:54:36;7.61;71.10
64882;HTU21D;51375;44.836;38.672;2024-02-04T04:57:02;7.62;71.09
64882;HTU21D;51375;44.836;38.672;2024-02-04T04:59:28;7.63;71.10
64882;HTU21D;51375;44.836;38.672;2024-02-04T05:01:54;7.61;71.18
64882;HTU21D;51375;44.836;38.672;2024-02-04T05:04:20;7.61;71.23
64882;HTU21D;51375;44.836;38.672;2024-02-04T05:06:51;7.65;71.19
64882;HTU21D;51375;44.836;38.672;2024-02-04T05:09:17;7.71;71.03
64882;HTU21D;51375;44.836;38.672;2024-02-04T05:11:43;7.73;71.04
64882;HTU21D;51375;44.836;38.672;2024-02-04T05:14:09;7.76;70.97
64882;HTU21D;51375;44.836;38.672;2024-02-04T05:16:35;7.79;70.95
64882;HTU21D;51375;44.836;38.672;2024-02-04T05:19:04;7.87;70.77
64882;HTU21D;51375;44.836;38.672;2024-02-04T05:21:29;7.89;70.81
64882;HTU21D;51375;44.836;38.672;2024-02-04T05:23:55;7.90;70.77
64882;HTU21D;51375;44.836;38.672;2024-02-04T05:26:21;7.97;70.75
64882;HTU21D;51375;44.836;38.672;2024-02-04T05:28:47;7.92;70.97
64882;HTU21D;51375;44.836;38.672;2024-02-04T05:31:13;7.91;71.10
64882;HTU21D;51375;44.836;38.672;2024-02-04T05:33:39;7.90;71.16
64882;HTU21D;51375;44.836;38.672;2024-02-04T05:36:05;7.89;71.23
64882;HTU21D;51375;44.836;38.672;2024-02-04T05:38:31;7.83;71.47
64882;HTU21D;51375;44.836;38.672;2024-02-04T05:40:57;7.81;71.54
64882;HTU21D;51375;44.836;38.672;2024-02-04T05:43:23;7.82;71.65
64882;HTU21D;51375;44.836;38.672;2024-02-04T05:45:49;7.86;71.66
64882;HTU21D;51375;44.836;38.672;2024-02-04T05:48:15;7.89;71.65
64882;HTU21D;51375;44.836;38.672;2024-02-04T05:50:41;7.96;71.56
64882;HTU21D;51375;44.836;38.672;2024-02-04T05:53:07;8.02;71.40
64882;HTU21D;51375;44.836;38.672;2024-02-04T05:55:33;8.06;71.35
64882;HTU21D;51375;44.836;38.672;2024-02-04T05:57:59;8.13;71.22
64882;HTU21D;51375;44.836;38.672;2024-02-04T06:00:26;8.22;71.03
64882;HTU21D;51375;44.836;38.672;2024-02-04T06:02:52;8.29;70.87
64882;HTU21D;51375;44.836;38.672;2024-02-04T09:31:13;8.18;76.30
64882;HTU21D;51375;44.836;38.672;2024-02-04T09:33:39;8.19;76.42
64882;HTU21D;51375;44.836;38.672;2024-02-04T09:36:06;8.23;76.37
64882;HTU21D;51375;44.836;38.672;2024-02-04T09:38:32;8.31;76.23
64882;HTU21D;51375;44.836;38.672;2024-02-04T09:40:58;8.43;76.13
64882;HTU21D;51375;44.836;38.672;2024-02-04T09:43:26;8.50;76.02
64882;HTU21D;51375;44.836;38.672;2024-02-04T09:45:52;8.61;75.80
64882;HTU21D;51375;44.836;38.672;2024-02-04T09:48:19;8.68;75.72
64882;HTU21D;51375;44.836;38.672;2024-02-04T09:50:46;8.77;75.78
64882;HTU21D;51375;44.836;38.672;2024-02-04T09:53:14;8.91;75.83
64882;HTU21D;51375;44.836;38.672;2024-02-04T09:55:44;9.10;75.86
64882;HTU21D;51375;44.836;38.672;2024-02-04T09:58:10;9.26;75.92
64882;HTU21D;51375;44.836;38.672;2024-02-04T10:00:38;9.44;75.82
64882;HTU21D;51375;44.836;38.672;2024-02-04T10:03:05;9.60;75.57
64882;HTU21D;51375;44.836;38.672;2024-02-04T10:05:31;9.76;75.35
64882;HTU21D;51375;44.836;38.672;2024-02-04T10:07:57;9.88;75.03
64882;HTU21D;51375;44.836;38.672;2024-02-04T10:10:24;9.94;74.98
64882;HTU21D;51375;44.836;38.672;2024-02-04T10:12:51;10.06;74.90
64882;HTU21D;51375;44.836;38.672;2024-02-04T10:15:16;10.18;74.92
64882;HTU21D;51375;44.836;38.672;2024-02-04T10:17:45;10.26;74.64
64882;HTU21D;51375;44.836;38.672;2024-02-04T10:20:11;10.29;74.41
64882;HTU21D;51375;44.836;38.672;2024-02-04T10:22:38;10.31;74.31
64882;HTU21D;51375;44.836;38.672;2024-02-04T10:25:10;10.35;74.31
64882;HTU21D;51375;44.836;38.672;2024-02-04T10:27:38;10.39;74.31
64882;HTU21D;51375;44.836;38.672;2024-02-04T10:30:04;10.45;74.18
64882;HTU21D;51375;44.836;38.672;2024-02-04T10:32:31;10.53;74.25
64882;HTU21D;51375;44.836;38.672;2024-02-04T10:34:58;10.60;74.20
64882;HTU21D;51375;44.836;38.672;2024-02-04T10:37:25;10.60;74.28
64882;HTU21D;51375;44.836;38.672;2024-02-04T10:39:51;10.64;74.28
64882;HTU21D;51375;44.836;38.672;2024-02-04T10:42:17;10.74;74.35
64882;HTU21D;51375;44.836;38.672;2024-02-04T10:44:49;10.84;74.20
64882;HTU21D;51375;44.836;38.672;2024-02-04T10:47:22;10.86;74.16
64882;HTU21D;51375;44.836;38.672;2024-02-04T10:49:52;10.89;74.33
64882;HTU21D;51375;44.836;38.672;2024-02-04T10:52:27;10.90;74.41
64882;HTU21D;51375;44.836;38.672;2024-02-04T10:54:53;10.89;74.51
64882;HTU21D;51375;44.836;38.672;2024-02-04T12:04:17;10.44;74.81
64882;HTU21D;51375;44.836;38.672;2024-02-04T12:06:44;10.52;74.54
64882;HTU21D;51375;44.836;38.672;2024-02-04T12:09:11;10.54;74.49
64882;HTU21D;51375;44.836;38.672;2024-02-04T12:11:38;10.59;74.38
64882;HTU21D;51375;44.836;38.672;2024-02-04T12:14:05;10.58;74.38
64882;HTU21D;51375;44.836;38.672;2024-02-04T12:16:33;10.58;74.32
64882;HTU21D;51375;44.836;38.672;2024-02-04T12:19:04;10.57;74.28
64882;HTU21D;51375;44.836;38.672;2024-02-04T12:21:30;10.54;74.31
64882;HTU21D;51375;44.836;38.672;2024-02-04T12:23:57;10.51;74.45
64882;HTU21D;51375;44.836;38.672;2024-02-04T12:26:23;10.52;74.51
64882;HTU21D;51375;44.836;38.672;2024-02-04T12:28:50;10.56;74.35
64882;HTU21D;51375;44.836;38.672;2024-02-04T12:31:20;10.58;74.22
64882;HTU21D;51375;44.836;38.672;2024-02-04T12:33:53;10.60;74.10
64882;HTU21D;51375;44.836;38.672;2024-02-04T12:36:21;10.62;74.12
64882;HTU21D;51375;44.836;38.672;2024-02-04T12:39:00;10.64;74.07
64882;HTU21D;51375;44.836;38.672;2024-02-04T12:41:27;10.69;73.89
64882;HTU21D;51375;44.836;38.672;2024-02-04T12:43:55;10.71;73.75
64882;HTU21D;51375;44.836;38.672;2024-02-04T12:46:22;10.73;73.71
64882;HTU21D;51375;44.836;38.672;2024-02-04T12:48:53;10.78;73.63
64882;HTU21D;51375;44.836;38.672;2024-02-04T12:51:26;10.81;73.57
64882;HTU21D;51375;44.836;38.672;2024-02-04T12:59:09;10.94;73.22
64882;HTU21D;51375;44.836;38.672;2024-02-04T13:01:36;10.95;73.29
64882;HTU21D;51375;44.836;38.672;2024-02-04T13:04:03;10.97;73.23
64882;HTU21D;51375;44.836;38.672;2024-02-04T13:06:30;10.97;73.25
64882;HTU21D;51375;44.836;38.672;2024-02-04T13:08:57;10.97;73.37
64882;HTU21D;51375;44.836;38.672;2024-02-04T13:11:25;10.95;73.47
64882;HTU21D;51375;44.836;38.672;2024-02-04T13:13:51;10.94;73.61
64882;HTU21D;51375;44.836;38.672;2024-02-04T13:16:19;10.96;73.62
64882;HTU21D;51375;44.836;38.672;2024-02-04T13:18:53;10.95;73.68
64882;HTU21D;51375;44.836;38.672;2024-02-04T13:21:19;10.94;73.80
64882;HTU21D;51375;44.836;38.672;2024-02-04T13:23:50;10.88;73.86
64882;HTU21D;51375;44.836;38.672;2024-02-04T13:26:17;10.79;74.15
64882;HTU21D;51375;44.836;38.672;2024-02-04T13:28:43;10.69;74.35
64882;HTU21D;51375;44.836;38.672;2024-02-04T13:31:09;10.65;74.54
64882;HTU21D;51375;44.836;38.672;2024-02-04T13:33:37;10.60;74.66
64882;HTU21D;51375;44.836;38.672;2024-02-04T13:36:08;10.58;74.74
64882;HTU21D;51375;44.836;38.672;2024-02-04T13:38:35;10.57;74.74
64882;HTU21D;51375;44.836;38.672;2024-02-04T13:41:04;10.60;74.58
64882;HTU21D;51375;44.836;38.672;2024-02-04T13:43:32;10.64;74.51
64882;HTU21D;51375;44.836;38.672;2024-02-04T13:46:00;10.66;74.36
64882;HTU21D;51375;44.836;38.672;2024-02-04T13:48:26;10.65;74.37
64882;HTU21D;51375;44.836;38.672;2024-02-04T13:50:52;10.65;74.41
64882;HTU21D;51375;44.836;38.672;2024-02-04T13:53:20;10.64;74.35
64882;HTU21D;51375;44.836;38.672;2024-02-04T13:55:48;10.64;74.30
64882;HTU21D;51375;44.836;38.672;2024-02-04T13:58:14;10.63;74.32
64882;HTU21D;51375;44.836;38.672;2024-02-04T14:00:41;10.63;74.28
64882;HTU21D;51375;44.836;38.672;2024-02-04T14:03:06;10.55;74.32
64882;HTU21D;51375;44.836;38.672;2024-02-04T14:05:33;10.51;74.38
64882;HTU21D;51375;44.836;38.672;2024-02-04T14:07:59;10.49;74.38
64882;HTU21D;51375;44.836;38.672;2024-02-04T14:10:26;10.48;74.40
64882;HTU21D;51375;44.836;38.672;2024-02-04T14:12:52;10.48;74.31
64882;HTU21D;51375;44.836;38.672;2024-02-04T14:15:18;10.48;74.24
64882;HTU21D;51375;44.836;38.672;2024-02-04T14:17:44;10.49;74.16
64882;HTU21D;51375;44.836;38.672;2024-02-04T14:20:10;10.45;74.15
64882;HTU21D;51375;44.836;38.672;2024-02-04T14:22:37;10.40;74.15
64882;HTU21D;51375;44.836;38.672;2024-02-04T14:25:03;10.36;74.12
64882;HTU21D;51375;44.836;38.672;2024-02-04T14:27:29;10.35;74.06
64882;HTU21D;51375;44.836;38.672;2024-02-04T14:29:55;10.34;74.02
64882;HTU21D;51375;44.836;38.672;2024-02-04T14:32:21;10.33;73.93
64882;HTU21D;51375;44.836;38.672;2024-02-04T14:34:47;10.30;73.90
64882;HTU21D;51375;44.836;38.672;2024-02-04T14:37:14;10.31;73.79
64882;HTU21D;51375;44.836;38.672;2024-02-04T14:39:40;10.29;73.73
64882;HTU21D;51375;44.836;38.672;2024-02-04T14:42:09;10.26;73.64
64882;HTU21D;51375;44.836;38.672;2024-02-04T14:44:36;10.24;73.65
64882;HTU21D;51375;44.836;38.672;2024-02-04T14:47:02;10.22;73.69
64882;HTU21D;51375;44.836;38.672;2024-02-04T14:49:28;10.19;73.72
64882;HTU21D;51375;44.836;38.672;2024-02-04T14:51:54;10.19;73.72
64882;HTU21D;51375;44.836;38.672;2024-02-04T14:54:20;10.15;73.64
64882;HTU21D;51375;44.836;38.672;2024-02-04T14:56:47;10.13;73.64
64882;HTU21D;51375;44.836;38.672;2024-02-04T14:59:15;10.11;73.71
64882;HTU21D;51375;44.836;38.672;2024-02-04T15:01:45;10.11;73.65
64882;HTU21D;51375;44.836;38.672;2024-02-04T15:04:15;10.11;73.62
64882;HTU21D;51375;44.836;38.672;2024-02-04T15:06:41;10.07;73.64
64882;HTU21D;51375;44.836;38.672;2024-02-04T15:09:07;10.09;73.65
64882;HTU21D;51375;44.836;38.672;2024-02-04T15:11:36;10.11;73.48
64882;HTU21D;51375;44.836;38.672;2024-02-04T15:14:02;10.09;73.53
64882;HTU21D;51375;44.836;38.672;2024-02-04T15:16:29;10.08;73.67
64882;HTU21D;51375;44.836;38.672;2024-02-04T15:18:55;10.06;73.80
64882;HTU21D;51375;44.836;38.672;2024-02-04T15:21:21;10.04;73.90
64882;HTU21D;51375;44.836;38.672;2024-02-04T15:23:50;10.00;73.97
64882;HTU21D;51375;44.836;38.672;2024-02-04T15:26:16;9.91;74.34
64882;HTU21D;51375;44.836;38.672;2024-02-04T15:28:43;9.85;74.54
64882;HTU21D;51375;44.836;38.672;2024-02-04T15:31:13;9.84;74.67
64882;HTU21D;51375;44.836;38.672;2024-02-04T15:33:40;9.83;74.73
64882;HTU21D;51375;44.836;38.672;2024-02-04T15:36:10;9.81;74.81
64882;HTU21D;51375;44.836;38.672;2024-02-04T15:38:36;9.83;74.80
64882;HTU21D;51375;44.836;38.672;2024-02-04T15:41:02;9.81;74.78
64882;HTU21D;51375;44.836;38.672;2024-02-04T15:43:28;9.82;74.74
64882;HTU21D;51375;44.836;38.672;2024-02-04T15:45:57;9.82;74.83
64882;HTU21D;51375;44.836;38.672;2024-02-04T15:48:28;9.78;74.98
64882;HTU21D;51375;44.836;38.672;2024-02-04T15:50:56;9.75;75.16
64882;HTU21D;51375;44.836;38.672;2024-02-04T15:53:24;9.77;75.22
64882;HTU21D;51375;44.836;38.672;2024-02-04T15:55:51;9.83;75.17
64882;HTU21D;51375;44.836;38.672;2024-02-04T15:58:17;9.82;75.28
64882;HTU21D;51375;44.836;38.672;2024-02-04T16:00:43;9.84;75.34
64882;HTU21D;51375;44.836;38.672;2024-02-04T16:03:11;9.83;75.33
64882;HTU21D;51375;44.836;38.672;2024-02-04T16:05:38;9.85;75.28
64882;HTU21D;51375;44.836;38.672;2024-02-04T16:08:04;9.93;75.16
64882;HTU21D;51375;44.836;38.672;2024-02-04T16:10:30;10.00;75.02
64882;HTU21D;51375;44.836;38.672;2024-02-04T16:12:58;10.05;74.95
64882;HTU21D;51375;44.836;38.672;2024-02-04T16:15:27;10.07;75.05
64882;HTU21D;51375;44.836;38.672;2024-02-04T16:17:54;10.10;74.95
64882;HTU21D;51375;44.836;38.672;2024-02-04T16:20:21;10.11;74.96
64882;HTU21D;51375;44.836;38.672;2024-02-04T16:22:47;10.13;74.92
64882;HTU21D;51375;44.836;38.672;2024-02-04T16:25:15;10.14;74.92
64882;HTU21D;51375;44.836;38.672;2024-02-04T16:27:42;10.15;74.96
64882;HTU21D;51375;44.836;38.672;2024-02-04T16:30:10;10.15;74.97
64882;HTU21D;51375;44.836;38.672;2024-02-04T16:32:37;10.20;74.90
64882;HTU21D;51375;44.836;38.672;2024-02-04T16:35:04;10.22;74.83
64882;HTU21D;51375;44.836;38.672;2024-02-04T16:37:31;10.26;74.74
64882;HTU21D;51375;44.836;38.672;2024-02-04T16:39:57;10.30;74.64
64882;HTU21D;51375;44.836;38.672;2024-02-04T16:42:23;10.34;74.57
64882;HTU21D;51375;44.836;38.672;2024-02-04T16:44:51;10.38;74.41
64882;HTU21D;51375;44.836;38.672;2024-02-04T16:47:20;10.39;74.19
64882;HTU21D;51375;44.836;38.672;2024-02-04T16:49:47;10.30;74.57
64882;HTU21D;51375;44.836;38.672;2024-02-04T16:52:13;10.11;75.42
64882;HTU21D;51375;44.836;38.672;2024-02-04T16:54:40;9.93;75.87
64882;HTU21D;51375;44.836;38.672;2024-02-04T16:57:06;9.80;76.08
64882;HTU21D;51375;44.836;38.672;2024-02-04T16:59:34;9.71;76.05
64882;HTU21D;51375;44.836;38.672;2024-02-04T17:02:03;9.70;76.05
64882;HTU21D;51375;44.836;38.672;2024-02-04T17:04:29;9.71;75.95
64882;HTU21D;51375;44.836;38.672;2024-02-04T17:06:56;9.72;75.86
64882;HTU21D;51375;44.836;38.672;2024-02-04T17:09:22;9.75;75.86
64882;HTU21D;51375;44.836;38.672;2024-02-04T17:11:48;9.78;75.77
64882;HTU21D;51375;44.836;38.672;2024-02-04T17:14:15;9.83;75.67
64882;HTU21D;51375;44.836;38.672;2024-02-04T17:16:52;9.77;75.79
64882;HTU21D;51375;44.836;38.672;2024-02-04T17:22:14;9.63;76.38
64882;HTU21D;51375;44.836;38.672;2024-02-04T17:24:51;9.62;76.47
64882;HTU21D;51375;44.836;38.672;2024-02-04T17:27:19;9.60;76.73
64882;HTU21D;51375;44.836;38.672;2024-02-04T17:29:47;9.62;76.71
64882;HTU21D;51375;44.836;38.672;2024-02-04T17:32:14;9.61;76.63
64882;HTU21D;51375;44.836;38.672;2024-02-04T17:34:40;9.59;76.54
64882;HTU21D;51375;44.836;38.672;2024-02-04T17:37:07;9.55;76.49
64882;HTU21D;51375;44.836;38.672;2024-02-04T17:39:33;9.53;76.57
64882;HTU21D;51375;44.836;38.672;2024-02-04T17:42:01;9.53;76.57
64882;HTU21D;51375;44.836;38.672;2024-02-04T17:44:33;9.59;76.50
64882;HTU21D;51375;44.836;38.672;2024-02-04T17:47:00;9.66;76.24
64882;HTU21D;51375;44.836;38.672;2024-02-04T17:49:27;9.69;76.09
64882;HTU21D;51375;44.836;38.672;2024-02-04T17:51:53;9.70;76.03
64882;HTU21D;51375;44.836;38.672;2024-02-04T17:54:19;9.74;75.89
64882;HTU21D;51375;44.836;38.672;2024-02-04T17:56:45;9.71;75.89
64882;HTU21D;51375;44.836;38.672;2024-02-04T17:59:11;9.67;76.05
64882;HTU21D;51375;44.836;38.672;2024-02-04T18:01:37;9.66;76.03
64882;HTU21D;51375;44.836;38.672;2024-02-04T18:04:03;9.66;76.06
64882;HTU21D;51375;44.836;38.672;2024-02-04T18:06:37;9.66;75.95
64882;HTU21D;51375;44.836;38.672;2024-02-04T18:09:06;9.68;75.92
64882;HTU21D;51375;44.836;38.672;2024-02-04T18:11:32;9.67;75.85
64882;HTU21D;51375;44.836;38.672;2024-02-04T18:13:59;9.67;75.89
64882;HTU21D;51375;44.836;38.672;2024-02-04T18:16:30;9.66;75.81
64882;HTU21D;51375;44.836;38.672;2024-02-04T18:18:56;9.67;75.80
64882;HTU21D;51375;44.836;38.672;2024-02-04T18:21:26;9.68;75.71
64882;HTU21D;51375;44.836;38.672;2024-02-04T18:23:52;9.66;75.54
64882;HTU21D;51375;44.836;38.672;2024-02-04T18:26:25;9.63;75.50
64882;HTU21D;51375;44.836;38.672;2024-02-04T18:28:53;9.65;75.59
64882;HTU21D;51375;44.836;38.672;2024-02-04T18:31:20;9.66;75.40
64882;HTU21D;51375;44.836;38.672;2024-02-04T18:33:46;9.67;75.21
64882;HTU21D;51375;44.836;38.672;2024-02-04T18:36:15;9.62;75.25
64882;HTU21D;51375;44.836;38.672;2024-02-04T18:38:56;9.62;75.09
64882;HTU21D;51375;44.836;38.672;2024-02-04T18:41:23;9.63;75.00
64882;HTU21D;51375;44.836;38.672;2024-02-04T18:43:51;9.63;74.91
64882;HTU21D;51375;44.836;38.672;2024-02-04T18:46:19;9.63;74.92
64882;HTU21D;51375;44.836;38.672;2024-02-04T18:48:45;9.64;74.90
64882;HTU21D;51375;44.836;38.672;2024-02-04T18:51:11;9.66;74.80
64882;HTU21D;51375;44.836;38.672;2024-02-04T18:53:37;9.68;74.70
64882;HTU21D;51375;44.836;38.672;2024-02-04T18:56:04;9.69;74.57
64882;HTU21D;51375;44.836;38.672;2024-02-04T18:58:30;9.71;74.50
64882;HTU21D;51375;44.836;38.672;2024-02-04T19:00:58;9.69;74.43
64882;HTU21D;51375;44.836;38.672;2024-02-04T19:03:24;9.65;74.49
64882;HTU21D;51375;44.836;38.672;2024-02-04T19:05:50;9.63;74.48
64882;HTU21D;51375;44.836;38.672;2024-02-04T19:08:16;9.60;74.48
64882;HTU21D;51375;44.836;38.672;2024-02-04T19:10:42;9.57;74.51
64882;HTU21D;51375;44.836;38.672;2024-02-04T19:13:08;9.55;74.50
64882;HTU21D;51375;44.836;38.672;2024-02-04T19:15:34;9.54;74.48
64882;HTU21D;51375;44.836;38.672;2024-02-04T19:18:00;9.53;74.44
64882;HTU21D;51375;44.836;38.672;2024-02-04T19:20:28;9.51;74.52
64882;HTU21D;51375;44.836;38.672;2024-02-04T19:22:55;9.51;74.51
64882;HTU21D;51375;44.836;38.672;2024-02-04T19:25:21;9.50;74.54
64882;HTU21D;51375;44.836;38.672;2024-02-04T19:27:53;9.50;74.51
64882;HTU21D;51375;44.836;38.672;2024-02-04T19:30:24;9.51;74.54
64882;HTU21D;51375;44.836;38.672;2024-02-04T19:32:52;9.51;74.46
64882;HTU21D;51375;44.836;38.672;2024-02-04T19:35:19;9.49;74.44
64882;HTU21D;51375;44.836;38.672;2024-02-04T19:37:46;9.48;74.44
64882;HTU21D;51375;44.836;38.672;2024-02-04T19:40:13;9.50;74.29
64882;HTU21D;51375;44.836;38.672;2024-02-04T19:42:40;9.49;74.30
64882;HTU21D;51375;44.836;38.672;2024-02-04T19:45:06;9.49;74.37
64882;HTU21D;51375;44.836;38.672;2024-02-04T19:47:33;9.50;74.21
64882;HTU21D;51375;44.836;38.672;2024-02-04T19:50:03;9.51;74.21
64882;HTU21D;51375;44.836;38.672;2024-02-04T19:52:33;9.53;74.18
64882;HTU21D;51375;44.836;38.672;2024-02-04T19:55:08;9.52;74.06